sensor_id;sensor_type;location;lat;lon;timestamp;pressure;altitude;pressure_sealevel;temperature;humidity
12349;BME280;5974;42.710;27.258;2023-02-01T00:00:15;100100.53;;;3.33;100.00
12349;BME280;5974;42.710;27.258;2023-02-01T00:02:42;100110.03;;;3.29;100.00
12349;BME280;5974;42.710;27.258;2023-02-01T00:05:09;100108.97;;;3.50;100.00
12349;BME280;5974;42.710;27.258;2023-02-01T00:07:37;100117.50;;;3.55;100.00
12349;BME280;5974;42.710;27.258;2023-02-01T00:10:05;100115.16;;;3.34;100.00
12349;BME280;5974;42.710;27.258;2023-02-01T00:12:33;100118.84;;;3.13;100.00
12349;BME280;5974;42.710;27.258;2023-02-01T00:15:02;100123.97;;;3.16;100.00
12349;BME280;5974;42.710;27.258;2023-02-01T00:17:29;100130.31;;;2.84;100.00
12349;BME280;5974;42.710;27.258;2023-02-01T00:19:55;100119.19;;;2.77;100.00
12349;BME280;5974;42.710;27.258;2023-02-01T00:22:22;100127.75;;;2.81;100.00
12349;BME280;5974;42.710;27.258;2023-02-01T00:24:50;100132.00;;;2.88;100.00
12349;BME280;5974;42.710;27.258;2023-02-01T00:27:17;100131.34;;;2.66;100.00
12349;BME280;5974;42.710;27.258;2023-02-01T00:29:46;100137.28;;;2.74;100.00
12349;BME280;5974;42.710;27.258;2023-02-01T00:32:14;100134.66;;;2.80;100.00
12349;BME280;5974;42.710;27.258;2023-02-01T00:34:41;100136.59;;;2.54;100.00
12349;BME280;5974;42.710;27.258;2023-02-01T00:37:08;100143.53;;;2.49;100.00
12349;BME280;5974;42.710;27.258;2023-02-01T00:39:35;100141.69;;;2.64;100.00
12349;BME280;5974;42.710;27.258;2023-02-01T00:42:02;100138.44;;;2.38;100.00
12349;BME280;5974;42.710;27.258;2023-02-01T00:44:29;100140.25;;;2.27;100.00
12349;BME280;5974;42.710;27.258;2023-02-01T00:46:59;100146.91;;;2.55;100.00
12349;BME280;5974;42.710;27.258;2023-02-01T00:49:28;100149.53;;;2.51;100.00
12349;BME280;5974;42.710;27.258;2023-02-01T00:51:55;100146.91;;;2.52;100.00
12349;BME280;5974;42.710;27.258;2023-02-01T00:54:22;100144.34;;;2.52;100.00
12349;BME280;5974;42.710;27.258;2023-02-01T00:56:49;100155.69;;;2.33;100.00
12349;BME280;5974;42.710;27.258;2023-02-01T00:59:16;100149.63;;;2.34;100.00
12349;BME280;5974;42.710;27.258;2023-02-01T01:01:42;100155.75;;;2.19;100.00
12349;BME280;5974;42.710;27.258;2023-02-01T01:04:09;100156.63;;;2.20;100.00
12349;BME280;5974;42.710;27.258;2023-02-01T01:06:38;100160.91;;;2.19;100.00
12349;BME280;5974;42.710;27.258;2023-02-01T01:09:06;100159.25;;;2.11;100.00
12349;BME280;5974;42.710;27.258;2023-02-01T01:11:35;100166.91;;;2.28;100.00
12349;BME280;5974;42.710;27.258;2023-02-01T01:14:03;100154.81;;;2.31;100.00
12349;BME280;5974;42.710;27.258;2023-02-01T01:16:31;100158.88;;;2.67;100.00
12349;BME280;5974;42.710;27.258;2023-02-01T01:18:58;100154.59;;;2.63;100.00
12349;BME280;5974;42.710;27.258;2023-02-01T01:21:26;100148.34;;;2.90;100.00
12349;BME280;5974;42.710;27.258;2023-02-01T01:23:55;100143.22;;;2.85;100.00
12349;BME280;5974;42.710;27.258;2023-02-01T01:26:24;100137.19;;;2.83;100.00
12349;BME280;5974;42.710;27.258;2023-02-01T01:28:51;100140.63;;;2.88;100.00
12349;BME280;5974;42.710;27.258;2023-02-01T01:31:20;100138.94;;;2.86;100.00
12349;BME280;5974;42.710;27.258;2023-02-01T01:33:50;100116.69;;;2.68;100.00
12349;BME280;5974;42.710;27.258;2023-02-01T01:36:18;100135.41;;;2.90;100.00
12349;BME280;5974;42.710;27.258;2023-02-01T01:38:45;100140.59;;;2.90;100.00
12349;BME280;5974;42.710;27.258;2023-02-01T01:41:17;100136.22;;;2.96;100.00
12349;BME280;5974;42.710;27.258;2023-02-01T01:43:53;100136.13;;;3.07;100.00
12349;BME280;5974;42.710;27.258;2023-02-01T01:46:22;100139.69;;;2.95;100.00
12349;BME280;5974;42.710;27.258;2023-02-01T01:48:52;100137.91;;;3.00;100.00
12349;BME280;5974;42.710;27.258;2023-02-01T01:51:23;100114.00;;;2.80;100.00
12349;BME280;5974;42.710;27.258;2023-02-01T01:54:09;100124.19;;;2.98;100.00
12349;BME280;5974;42.710;27.258;2023-02-01T01:56:39;100127.72;;;2.87;100.00
12349;BME280;5974;42.710;27.258;2023-02-01T01:59:07;100116.31;;;3.09;100.00
12349;BME280;5974;42.710;27.258;2023-02-01T02:01:35;100119.97;;;2.87;100.00
12349;BME280;5974;42.710;27.258;2023-02-01T02:04:02;100109.50;;;3.00;100.00
12349;BME280;5974;42.710;27.258;2023-02-01T02:06:42;100108.84;;;2.80;100.00
12349;BME280;5974;42.710;27.258;2023-02-01T02:09:13;100107.09;;;2.85;100.00
12349;BME280;5974;42.710;27.258;2023-02-01T02:11:41;100066.91;;;2.55;100.00
12349;BME280;5974;42.710;27.258;2023-02-01T02:14:10;100117.31;;;2.93;100.00
12349;BME280;5974;42.710;27.258;2023-02-01T02:16:45;100124.28;;;2.83;100.00
12349;BME280;5974;42.710;27.258;2023-02-01T02:22:30;100119.97;;;2.87;100.00
12349;BME280;5974;42.710;27.258;2023-02-01T02:25:28;100124.28;;;2.83;100.00
12349;BME280;5974;42.710;27.258;2023-02-01T02:28:00;100112.38;;;2.71;100.00
12349;BME280;5974;42.710;27.258;2023-02-01T02:30:52;100121.44;;;3.12;100.00
12349;BME280;5974;42.710;27.258;2023-02-01T02:33:41;100112.19;;;2.91;100.00
12349;BME280;5974;42.710;27.258;2023-02-01T02:36:17;100104.41;;;2.94;100.00
12349;BME280;5974;42.710;27.258;2023-02-01T02:38:51;100113.97;;;2.85;100.00
12349;BME280;5974;42.710;27.258;2023-02-01T02:41:25;100117.34;;;2.90;100.00
12349;BME280;5974;42.710;27.258;2023-02-01T02:44:18;100111.44;;;2.77;100.00
12349;BME280;5974;42.710;27.258;2023-02-01T02:47:13;100109.72;;;2.78;100.00
12349;BME280;5974;42.710;27.258;2023-02-01T02:49:58;100108.88;;;2.74;100.00
12349;BME280;5974;42.710;27.258;2023-02-01T02:52:51;100125.50;;;2.44;100.00
12349;BME280;5974;42.710;27.258;2023-02-01T02:55:37;100123.56;;;2.69;100.00
12349;BME280;5974;42.710;27.258;2023-02-01T02:58:06;100121.72;;;2.83;100.00
12349;BME280;5974;42.710;27.258;2023-02-01T03:00:51;100121.72;;;2.85;100.00
12349;BME280;5974;42.710;27.258;2023-02-01T03:03:37;100112.09;;;3.00;100.00
12349;BME280;5974;42.710;27.258;2023-02-01T03:06:23;100110.56;;;2.83;100.00
12349;BME280;5974;42.710;27.258;2023-02-01T03:08:51;100117.41;;;2.85;100.00
12349;BME280;5974;42.710;27.258;2023-02-01T03:11:23;100113.91;;;2.89;100.00
12349;BME280;5974;42.710;27.258;2023-02-01T03:14:12;100117.19;;;3.05;100.00
12349;BME280;5974;42.710;27.258;2023-02-01T03:16:42;100107.59;;;3.17;100.00
12349;BME280;5974;42.710;27.258;2023-02-01T03:19:14;100110.38;;;3.01;100.00
12349;BME280;5974;42.710;27.258;2023-02-01T03:21:47;100105.31;;;2.92;100.00
12349;BME280;5974;42.710;27.258;2023-02-01T03:24:17;100093.22;;;2.95;100.00
12349;BME280;5974;42.710;27.258;2023-02-01T03:26:48;100114.72;;;2.97;100.00
12349;BME280;5974;42.710;27.258;2023-02-01T03:29:21;100113.03;;;2.92;100.00
12349;BME280;5974;42.710;27.258;2023-02-01T03:31:50;100132.88;;;2.87;100.00
12349;BME280;5974;42.710;27.258;2023-02-01T03:34:17;100116.41;;;3.01;100.00
12349;BME280;5974;42.710;27.258;2023-02-01T03:36:49;100134.75;;;2.68;100.00
12349;BME280;5974;42.710;27.258;2023-02-01T03:39:21;100128.59;;;2.86;100.00
12349;BME280;5974;42.710;27.258;2023-02-01T03:41:53;100132.19;;;2.69;100.00
12349;BME280;5974;42.710;27.258;2023-02-01T03:44:24;100133.28;;;2.38;100.00
12349;BME280;5974;42.710;27.258;2023-02-01T03:46:54;100125.84;;;1.91;100.00
12349;BME280;5974;42.710;27.258;2023-02-01T03:49:27;100130.13;;;1.95;100.00
12349;BME280;5974;42.710;27.258;2023-02-01T03:51:58;100126.69;;;1.95;100.00
12349;BME280;5974;42.710;27.258;2023-02-01T03:54:27;100124.78;;;2.26;100.00
12349;BME280;5974;42.710;27.258;2023-02-01T03:56:57;100127.34;;;2.26;100.00
12349;BME280;5974;42.710;27.258;2023-02-01T03:59:26;100137.75;;;2.15;100.00
12349;BME280;5974;42.710;27.258;2023-02-01T04:01:53;100145.44;;;2.19;100.00
12349;BME280;5974;42.710;27.258;2023-02-01T04:04:20;100148.09;;;2.12;100.00
12349;BME280;5974;42.710;27.258;2023-02-01T04:06:47;100143.00;;;1.95;100.00
12349;BME280;5974;42.710;27.258;2023-02-01T04:09:16;100156.88;;;1.78;100.00
12349;BME280;5974;42.710;27.258;2023-02-01T04:11:43;100160.34;;;1.68;100.00
12349;BME280;5974;42.710;27.258;2023-02-01T04:14:10;100172.41;;;1.59;100.00
12349;BME280;5974;42.710;27.258;2023-02-01T04:16:37;100176.72;;;1.47;100.00
12349;BME280;5974;42.710;27.258;2023-02-01T04:19:03;100179.31;;;1.41;100.00
12349;BME280;5974;42.710;27.258;2023-02-01T04:21:30;100186.03;;;1.86;100.00
12349;BME280;5974;42.710;27.258;2023-02-01T04:23:57;100191.31;;;1.49;100.00
12349;BME280;5974;42.710;27.258;2023-02-01T04:26:26;100172.38;;;1.66;100.00
12349;BME280;5974;42.710;27.258;2023-02-01T04:28:53;100185.28;;;1.62;100.00
12349;BME280;5974;42.710;27.258;2023-02-01T04:31:20;100168.88;;;1.76;100.00
12349;BME280;5974;42.710;27.258;2023-02-01T04:33:51;100197.31;;;1.56;100.00
12349;BME280;5974;42.710;27.258;2023-02-01T04:36:19;100190.41;;;1.66;100.00
12349;BME280;5974;42.710;27.258;2023-02-01T04:38:47;100198.19;;;1.46;100.00
12349;BME280;5974;42.710;27.258;2023-02-01T04:41:14;100201.66;;;1.37;100.00
12349;BME280;5974;42.710;27.258;2023-02-01T04:43:45;100202.50;;;1.35;100.00
12349;BME280;5974;42.710;27.258;2023-02-01T04:46:12;100197.34;;;1.39;100.00
12349;BME280;5974;42.710;27.258;2023-02-01T04:48:39;100214.53;;;1.33;100.00
12349;BME280;5974;42.710;27.258;2023-02-01T04:51:06;100218.84;;;1.35;100.00
12349;BME280;5974;42.710;27.258;2023-02-01T04:53:33;100223.09;;;1.44;100.00
12349;BME280;5974;42.710;27.258;2023-02-01T04:56:00;100231.66;;;1.53;100.00
12349;BME280;5974;42.710;27.258;2023-02-01T04:58:27;100233.31;;;1.67;100.00
12349;BME280;5974;42.710;27.258;2023-02-01T05:00:55;100234.22;;;1.62;100.00
12349;BME280;5974;42.710;27.258;2023-02-01T05:03:22;100236.75;;;1.78;100.00
12349;BME280;5974;42.710;27.258;2023-02-01T05:05:49;100235.84;;;1.86;100.00
12349;BME280;5974;42.710;27.258;2023-02-01T05:08:15;100233.22;;;2.01;100.00
12349;BME280;5974;42.710;27.258;2023-02-01T05:10:44;100225.56;;;1.79;100.00
12349;BME280;5974;42.710;27.258;2023-02-01T05:13:11;100231.63;;;1.64;100.00
12349;BME280;5974;42.710;27.258;2023-02-01T05:15:56;100232.44;;;1.74;100.00
12349;BME280;5974;42.710;27.258;2023-02-01T05:18:23;100221.31;;;1.64;100.00
12349;BME280;5974;42.710;27.258;2023-02-01T05:20:50;100237.56;;;1.89;100.00
12349;BME280;5974;42.710;27.258;2023-02-01T05:23:17;100238.22;;;2.33;100.00
12349;BME280;5974;42.710;27.258;2023-02-01T05:25:44;100240.97;;;1.97;100.00
12349;BME280;5974;42.710;27.258;2023-02-01T05:28:11;100235.03;;;1.75;100.00
12349;BME280;5974;42.710;27.258;2023-02-01T05:30:37;100230.69;;;1.85;100.00
12349;BME280;5974;42.710;27.258;2023-02-01T05:33:06;100236.69;;;1.93;100.00
12349;BME280;5974;42.710;27.258;2023-02-01T05:35:33;100237.31;;;2.37;100.00
12349;BME280;5974;42.710;27.258;2023-02-01T05:38:00;100245.09;;;2.28;100.00
12349;BME280;5974;42.710;27.258;2023-02-01T05:40:27;100240.84;;;2.19;100.00
12349;BME280;5974;42.710;27.258;2023-02-01T05:42:54;100249.50;;;2.14;100.00
12349;BME280;5974;42.710;27.258;2023-02-01T05:45:21;100244.13;;;2.55;100.00
12349;BME280;5974;42.710;27.258;2023-02-01T05:47:47;100233.00;;;2.42;100.00
12349;BME280;5974;42.710;27.258;2023-02-01T05:50:16;100243.34;;;2.39;100.00
12349;BME280;5974;42.710;27.258;2023-02-01T05:52:43;100232.19;;;2.31;100.00
12349;BME280;5974;42.710;27.258;2023-02-01T05:55:09;100238.91;;;2.64;100.00
12349;BME280;5974;42.710;27.258;2023-02-01T05:57:36;100233.38;;;3.09;100.00
12349;BME280;5974;42.710;27.258;2023-02-01T06:00:04;100240.63;;;2.60;100.00
12349;BME280;5974;42.710;27.258;2023-02-01T06:02:31;100250.97;;;2.60;100.00
12349;BME280;5974;42.710;27.258;2023-02-01T06:04:58;100260.31;;;2.77;100.00
12349;BME280;5974;42.710;27.258;2023-02-01T06:07:26;100250.00;;;2.72;100.00
12349;BME280;5974;42.710;27.258;2023-02-01T06:09:53;100262.06;;;2.73;100.00
12349;BME280;5974;42.710;27.258;2023-02-01T06:12:19;100258.22;;;3.24;100.00
12349;BME280;5974;42.710;27.258;2023-02-01T06:14:46;100249.94;;;3.75;100.00
12349;BME280;5974;42.710;27.258;2023-02-01T06:17:13;100262.34;;;4.19;100.00
12349;BME280;5974;42.710;27.258;2023-02-01T06:19:40;100261.47;;;3.43;100.00
12349;BME280;5974;42.710;27.258;2023-02-01T06:22:10;100272.78;;;3.31;100.00
12349;BME280;5974;42.710;27.258;2023-02-01T06:24:38;100266.59;;;3.49;100.00
12349;BME280;5974;42.710;27.258;2023-02-01T06:27:06;100259.75;;;3.43;100.00
12349;BME280;5974;42.710;27.258;2023-02-01T06:29:34;100264.06;;;3.44;100.00
12349;BME280;5974;42.710;27.258;2023-02-01T06:32:01;100264.47;;;4.56;100.00
12349;BME280;5974;42.710;27.258;2023-02-01T06:34:28;100253.91;;;6.18;100.00
12349;BME280;5974;42.710;27.258;2023-02-01T06:36:55;100241.34;;;7.79;100.00
12349;BME280;5974;42.710;27.258;2023-02-01T06:39:22;100241.78;;;8.55;100.00
12349;BME280;5974;42.710;27.258;2023-02-01T06:41:50;100245.38;;;9.82;92.91
12349;BME280;5974;42.710;27.258;2023-02-01T06:44:17;100250.28;;;7.37;90.99
12349;BME280;5974;42.710;27.258;2023-02-01T06:46:44;100246.19;;;7.27;93.09
12349;BME280;5974;42.710;27.258;2023-02-01T06:49:11;100256.28;;;6.28;96.66
12349;BME280;5974;42.710;27.258;2023-02-01T06:51:38;100255.91;;;6.05;99.46
12349;BME280;5974;42.710;27.258;2023-02-01T06:54:04;100265.78;;;5.37;100.00
12349;BME280;5974;42.710;27.258;2023-02-01T06:56:31;100257.31;;;5.26;100.00
12349;BME280;5974;42.710;27.258;2023-02-01T06:58:59;100264.44;;;5.14;100.00
12349;BME280;5974;42.710;27.258;2023-02-01T07:01:29;100256.91;;;5.00;100.00
12349;BME280;5974;42.710;27.258;2023-02-01T07:03:56;100251.34;;;5.23;100.00
12349;BME280;5974;42.710;27.258;2023-02-01T07:06:23;100237.06;;;4.41;100.00
12349;BME280;5974;42.710;27.258;2023-02-01T07:08:50;100247.69;;;4.81;100.00
12349;BME280;5974;42.710;27.258;2023-02-01T07:11:21;100254.69;;;5.77;100.00
12349;BME280;5974;42.710;27.258;2023-02-01T07:13:48;100259.84;;;8.32;100.00
12349;BME280;5974;42.710;27.258;2023-02-01T07:16:18;100258.78;;;10.67;86.69
12349;BME280;5974;42.710;27.258;2023-02-01T07:18:45;100256.13;;;12.33;78.20
12349;BME280;5974;42.710;27.258;2023-02-01T07:21:12;100263.44;;;10.59;72.16
12349;BME280;5974;42.710;27.258;2023-02-01T07:23:39;100264.84;;;10.89;71.53
12349;BME280;5974;42.710;27.258;2023-02-01T07:26:09;100259.28;;;12.59;69.13
12349;BME280;5974;42.710;27.258;2023-02-01T07:28:37;100255.94;;;12.55;64.90
12349;BME280;5974;42.710;27.258;2023-02-01T07:31:05;100258.59;;;11.35;65.03
12349;BME280;5974;42.710;27.258;2023-02-01T07:33:34;100265.41;;;11.81;62.92
12349;BME280;5974;42.710;27.258;2023-02-01T07:36:02;100270.53;;;11.22;65.05
12349;BME280;5974;42.710;27.258;2023-02-01T07:38:29;100270.56;;;10.99;63.69
12349;BME280;5974;42.710;27.258;2023-02-01T07:41:00;100273.66;;;15.06;60.01
12349;BME280;5974;42.710;27.258;2023-02-01T07:43:27;100266.03;;;12.64;61.13
12349;BME280;5974;42.710;27.258;2023-02-01T07:45:54;100257.75;;;16.82;56.31
12349;BME280;5974;42.710;27.258;2023-02-01T07:48:24;100248.31;;;17.04;51.11
12349;BME280;5974;42.710;27.258;2023-02-01T07:50:58;100265.84;;;13.40;53.72
12349;BME280;5974;42.710;27.258;2023-02-01T07:53:25;100268.50;;;10.41;60.39
12349;BME280;5974;42.710;27.258;2023-02-01T07:55:52;100271.88;;;8.65;66.01
12349;BME280;5974;42.710;27.258;2023-02-01T07:58:19;100281.47;;;7.37;70.33
12349;BME280;5974;42.710;27.258;2023-02-01T08:00:45;100276.63;;;6.86;77.25
12349;BME280;5974;42.710;27.258;2023-02-01T08:03:30;100279.63;;;6.28;80.18
12349;BME280;5974;42.710;27.258;2023-02-01T08:05:58;100285.69;;;5.83;89.50
12349;BME280;5974;42.710;27.258;2023-02-01T08:08:25;100281.72;;;5.64;88.95
12349;BME280;5974;42.710;27.258;2023-02-01T08:10:57;100280.28;;;5.47;89.66
12349;BME280;5974;42.710;27.258;2023-02-01T08:13:23;100283.19;;;5.29;89.86
12349;BME280;5974;42.710;27.258;2023-02-01T08:15:50;100276.75;;;5.53;91.70
12349;BME280;5974;42.710;27.258;2023-02-01T08:18:17;100274.25;;;5.47;90.19
12349;BME280;5974;42.710;27.258;2023-02-01T08:20:46;100283.81;;;5.43;89.29
12349;BME280;5974;42.710;27.258;2023-02-01T08:23:14;100275.28;;;5.37;89.28
12349;BME280;5974;42.710;27.258;2023-02-01T08:25:41;100287.16;;;5.50;90.02
12349;BME280;5974;42.710;27.258;2023-02-01T08:28:08;100288.59;;;5.68;90.82
12349;BME280;5974;42.710;27.258;2023-02-01T08:30:36;100286.84;;;5.68;89.73
12349;BME280;5974;42.710;27.258;2023-02-01T08:33:03;100287.19;;;5.97;89.04
12349;BME280;5974;42.710;27.258;2023-02-01T08:35:31;100292.84;;;6.18;90.47
12349;BME280;5974;42.710;27.258;2023-02-01T08:37:58;100288.41;;;6.24;87.71
12349;BME280;5974;42.710;27.258;2023-02-01T08:40:26;100280.78;;;6.57;87.73
12349;BME280;5974;42.710;27.258;2023-02-01T08:42:53;100272.00;;;6.62;86.84
12349;BME280;5974;42.710;27.258;2023-02-01T08:45:23;100292.63;;;7.06;84.32
12349;BME280;5974;42.710;27.258;2023-02-01T08:47:50;100297.38;;;7.25;85.53
12349;BME280;5974;42.710;27.258;2023-02-01T08:50:18;100299.34;;;7.17;81.12
12349;BME280;5974;42.710;27.258;2023-02-01T08:52:46;100295.31;;;7.02;81.54
12349;BME280;5974;42.710;27.258;2023-02-01T08:55:13;100292.09;;;6.54;80.95
12349;BME280;5974;42.710;27.258;2023-02-01T08:57:42;100284.84;;;6.68;81.49
12349;BME280;5974;42.710;27.258;2023-02-01T09:00:12;100294.03;;;6.43;80.29
12349;BME280;5974;42.710;27.258;2023-02-01T09:02:40;100286.94;;;6.91;81.49
12349;BME280;5974;42.710;27.258;2023-02-01T09:05:07;100291.78;;;6.68;80.16
12349;BME280;5974;42.710;27.258;2023-02-01T09:07:34;100300.13;;;6.42;79.56
12349;BME280;5974;42.710;27.258;2023-02-01T09:10:02;100294.03;;;6.02;79.96
12349;BME280;5974;42.710;27.258;2023-02-01T09:12:29;100290.00;;;5.87;80.86
12349;BME280;5974;42.710;27.258;2023-02-01T09:14:58;100288.84;;;6.00;83.46
12349;BME280;5974;42.710;27.258;2023-02-01T09:17:25;100289.88;;;6.36;82.21
12349;BME280;5974;42.710;27.258;2023-02-01T09:19:52;100279.38;;;6.80;81.31
12349;BME280;5974;42.710;27.258;2023-02-01T09:22:19;100283.44;;;7.27;81.69
12349;BME280;5974;42.710;27.258;2023-02-01T09:24:46;100271.50;;;7.86;78.40
12349;BME280;5974;42.710;27.258;2023-02-01T09:27:13;100267.84;;;7.61;76.89
12349;BME280;5974;42.710;27.258;2023-02-01T09:29:40;100263.97;;;7.77;78.44
12349;BME280;5974;42.710;27.258;2023-02-01T09:32:08;100233.31;;;7.22;76.49
12349;BME280;5974;42.710;27.258;2023-02-01T09:34:35;100237.69;;;6.85;75.64
12349;BME280;5974;42.710;27.258;2023-02-01T09:37:02;100256.34;;;7.37;75.72
12349;BME280;5974;42.710;27.258;2023-02-01T09:39:29;100253.56;;;7.09;75.23
12349;BME280;5974;42.710;27.258;2023-02-01T09:42:07;100253.41;;;7.16;75.79
12349;BME280;5974;42.710;27.258;2023-02-01T09:44:57;100227.19;;;7.57;75.10
12349;BME280;5974;42.710;27.258;2023-02-01T09:47:27;100248.09;;;7.54;74.97
12349;BME280;5974;42.710;27.258;2023-02-01T09:50:02;100242.97;;;7.51;75.12
12349;BME280;5974;42.710;27.258;2023-02-01T09:52:34;100237.69;;;7.54;73.86
12349;BME280;5974;42.710;27.258;2023-02-01T09:55:05;100232.22;;;7.63;74.47
12349;BME280;5974;42.710;27.258;2023-02-01T09:57:43;100231.56;;;6.89;75.61
12349;BME280;5974;42.710;27.258;2023-02-01T10:00:17;100223.81;;;6.86;75.74
12349;BME280;5974;42.710;27.258;2023-02-01T10:02:49;100208.34;;;6.81;75.96
12349;BME280;5974;42.710;27.258;2023-02-01T10:05:22;100219.78;;;7.09;76.20
12349;BME280;5974;42.710;27.258;2023-02-01T10:08:01;100218.19;;;7.38;75.02
12349;BME280;5974;42.710;27.258;2023-02-01T10:10:35;100223.84;;;7.20;75.96
12349;BME280;5974;42.710;27.258;2023-02-01T10:13:27;100205.81;;;7.47;75.56
12349;BME280;5974;42.710;27.258;2023-02-01T10:16:05;100218.03;;;7.44;74.75
12349;BME280;5974;42.710;27.258;2023-02-01T10:18:43;100210.06;;;6.82;75.46
12349;BME280;5974;42.710;27.258;2023-02-01T10:21:22;100217.97;;;7.12;77.24
12349;BME280;5974;42.710;27.258;2023-02-01T10:24:15;100206.28;;;7.61;74.94
12349;BME280;5974;42.710;27.258;2023-02-01T10:26:50;100209.47;;;7.71;74.85
12349;BME280;5974;42.710;27.258;2023-02-01T10:29:25;100202.69;;;7.96;73.30
12349;BME280;5974;42.710;27.258;2023-02-01T10:31:54;100201.59;;;7.74;71.82
12349;BME280;5974;42.710;27.258;2023-02-01T10:34:26;100196.13;;;8.12;71.30
12349;BME280;5974;42.710;27.258;2023-02-01T10:36:55;100207.84;;;7.67;69.66
12349;BME280;5974;42.710;27.258;2023-02-01T10:39:23;100197.25;;;7.73;70.15
12349;BME280;5974;42.710;27.258;2023-02-01T10:41:50;100202.31;;;7.15;70.03
12349;BME280;5974;42.710;27.258;2023-02-01T10:44:20;100186.16;;;7.67;70.75
12349;BME280;5974;42.710;27.258;2023-02-01T10:46:49;100187.19;;;7.92;72.26
12349;BME280;5974;42.710;27.258;2023-02-01T10:49:18;100180.00;;;7.71;71.33
12349;BME280;5974;42.710;27.258;2023-02-01T10:51:51;100183.16;;;8.11;69.91
12349;BME280;5974;42.710;27.258;2023-02-01T10:54:20;100180.25;;;7.92;69.60
12349;BME280;5974;42.710;27.258;2023-02-01T10:56:48;100173.28;;;7.93;69.51
12349;BME280;5974;42.710;27.258;2023-02-01T10:59:17;100178.09;;;8.36;69.12
12349;BME280;5974;42.710;27.258;2023-02-01T11:01:45;100185.97;;;7.09;68.07
12349;BME280;5974;42.710;27.258;2023-02-01T11:04:14;100182.38;;;7.15;68.40
12349;BME280;5974;42.710;27.258;2023-02-01T11:06:44;100173.53;;;6.88;69.40
12349;BME280;5974;42.710;27.258;2023-02-01T11:09:18;100186.63;;;7.18;69.55
12349;BME280;5974;42.710;27.258;2023-02-01T11:11:55;100168.25;;;7.24;68.31
12349;BME280;5974;42.710;27.258;2023-02-01T11:14:30;100166.59;;;7.23;70.46
12349;BME280;5974;42.710;27.258;2023-02-01T11:17:02;100158.03;;;7.50;70.17
12349;BME280;5974;42.710;27.258;2023-02-01T11:19:37;100156.66;;;7.97;68.80
12349;BME280;5974;42.710;27.258;2023-02-01T11:22:05;100145.91;;;8.09;68.50
12349;BME280;5974;42.710;27.258;2023-02-01T11:24:35;100160.63;;;8.10;69.26
12349;BME280;5974;42.710;27.258;2023-02-01T11:27:05;100153.06;;;8.02;67.02
12349;BME280;5974;42.710;27.258;2023-02-01T11:29:42;100159.88;;;7.76;66.66
12349;BME280;5974;42.710;27.258;2023-02-01T11:32:11;100151.03;;;7.83;66.05
12349;BME280;5974;42.710;27.258;2023-02-01T11:34:42;100145.06;;;8.08;66.22
12349;BME280;5974;42.710;27.258;2023-02-01T11:37:17;100139.94;;;8.35;66.35
12349;BME280;5974;42.710;27.258;2023-02-01T11:39:55;100146.69;;;8.40;66.25
12349;BME280;5974;42.710;27.258;2023-02-01T11:42:23;100152.06;;;8.62;66.10
12349;BME280;5974;42.710;27.258;2023-02-01T11:44:50;100154.03;;;8.55;65.26
12349;BME280;5974;42.710;27.258;2023-02-01T11:47:26;100137.56;;;8.55;66.64
12349;BME280;5974;42.710;27.258;2023-02-01T11:49:54;100135.19;;;8.47;66.38
12349;BME280;5974;42.710;27.258;2023-02-01T11:52:41;100153.13;;;8.29;66.19
12349;BME280;5974;42.710;27.258;2023-02-01T11:55:32;100144.03;;;8.12;66.89
12349;BME280;5974;42.710;27.258;2023-02-01T11:58:16;100135.56;;;8.63;66.97
12349;BME280;5974;42.710;27.258;2023-02-01T12:00:58;100133.91;;;8.60;67.31
12349;BME280;5974;42.710;27.258;2023-02-01T12:03:43;100129.63;;;8.84;67.57
12349;BME280;5974;42.710;27.258;2023-02-01T12:06:45;100120.88;;;9.36;65.94
12349;BME280;5974;42.710;27.258;2023-02-01T12:09:27;100140.91;;;8.85;64.15
12349;BME280;5974;42.710;27.258;2023-02-01T12:12:08;100074.72;;;8.64;63.44
12349;BME280;5974;42.710;27.258;2023-02-01T12:15:00;100054.44;;;8.72;63.14
12349;BME280;5974;42.710;27.258;2023-02-01T12:23:36;100125.56;;;9.26;65.58
12349;BME280;5974;42.710;27.258;2023-02-01T12:29:12;100105.66;;;8.99;67.01
12349;BME280;5974;42.710;27.258;2023-02-01T12:31:59;100108.78;;;8.84;66.76
12349;BME280;5974;42.710;27.258;2023-02-01T12:34:48;100113.03;;;8.34;66.34
12349;BME280;5974;42.710;27.258;2023-02-01T12:37:35;100096.94;;;8.74;66.54
12349;BME280;5974;42.710;27.258;2023-02-01T12:40:17;100100.72;;;8.92;66.97
12349;BME280;5974;42.710;27.258;2023-02-01T12:42:51;100098.91;;;8.94;66.80
12349;BME280;5974;42.710;27.258;2023-02-01T12:45:26;100091.84;;;8.96;67.77
12349;BME280;5974;42.710;27.258;2023-02-01T12:48:00;100092.50;;;9.02;67.36
12349;BME280;5974;42.710;27.258;2023-02-01T12:50:44;100071.59;;;8.79;67.45
12349;BME280;5974;42.710;27.258;2023-02-01T12:53:17;100083.34;;;8.66;67.05
12349;BME280;5974;42.710;27.258;2023-02-01T12:55:49;100074.38;;;9.47;66.96
12349;BME280;5974;42.710;27.258;2023-02-01T12:58:21;100072.91;;;9.40;66.62
12349;BME280;5974;42.710;27.258;2023-02-01T13:00:54;100085.81;;;9.66;65.38
12349;BME280;5974;42.710;27.258;2023-02-01T13:03:35;100090.00;;;8.99;65.55
12349;BME280;5974;42.710;27.258;2023-02-01T13:06:08;100093.34;;;9.27;65.86
12349;BME280;5974;42.710;27.258;2023-02-01T13:08:42;100079.94;;;9.38;66.14
12349;BME280;5974;42.710;27.258;2023-02-01T13:11:13;100098.94;;;8.92;66.13
12349;BME280;5974;42.710;27.258;2023-02-01T13:13:52;100097.78;;;9.49;66.65
12349;BME280;5974;42.710;27.258;2023-02-01T13:16:25;100104.22;;;8.91;65.62
12349;BME280;5974;42.710;27.258;2023-02-01T13:19:02;100110.28;;;8.91;67.00
12349;BME280;5974;42.710;27.258;2023-02-01T13:21:33;100111.50;;;8.81;67.27
12349;BME280;5974;42.710;27.258;2023-02-01T13:24:02;100100.41;;;8.21;67.74
12349;BME280;5974;42.710;27.258;2023-02-01T13:26:30;100110.34;;;8.08;68.82